sensor_id;sensor_type;location;lat;lon;timestamp;pressure;altitude;pressure_sealevel;temperature
20058;BMP180;10189;49.546;7.906;2023-02-12T00:02:18;100168.00;;;7.20
20058;BMP180;10189;49.546;7.906;2023-02-12T00:04:47;100165.00;;;7.30
20058;BMP180;10189;49.546;7.906;2023-02-12T00:07:13;100149.00;;;7.30
20058;BMP180;10189;49.546;7.906;2023-02-12T00:09:39;100153.00;;;7.30
20058;BMP180;10189;49.546;7.906;2023-02-12T00:12:06;100153.00;;;7.30
20058;BMP180;10189;49.546;7.906;2023-02-12T00:14:31;100161.00;;;7.20
20058;BMP180;10189;49.546;7.906;2023-02-12T00:16:59;100155.00;;;7.20
20058;BMP180;10189;49.546;7.906;2023-02-12T00:19:25;100152.00;;;7.30
20058;BMP180;10189;49.546;7.906;2023-02-12T00:21:51;100162.00;;;7.30
20058;BMP180;10189;49.546;7.906;2023-02-12T00:24:17;100156.00;;;7.20
20058;BMP180;10189;49.546;7.906;2023-02-12T00:26:42;100154.00;;;7.30
20058;BMP180;10189;49.546;7.906;2023-02-12T00:29:09;100156.00;;;7.40
20058;BMP180;10189;49.546;7.906;2023-02-12T00:31:35;100155.00;;;7.40
20058;BMP180;10189;49.546;7.906;2023-02-12T00:34:01;100143.00;;;7.30
20058;BMP180;10189;49.546;7.906;2023-02-12T00:36:29;100148.00;;;7.40
20058;BMP180;10189;49.546;7.906;2023-02-12T00:38:56;100156.00;;;7.30
20058;BMP180;10189;49.546;7.906;2023-02-12T00:41:24;100156.00;;;7.50
20058;BMP180;10189;49.546;7.906;2023-02-12T00:43:51;100151.00;;;7.30
20058;BMP180;10189;49.546;7.906;2023-02-12T00:46:17;100148.00;;;7.30
20058;BMP180;10189;49.546;7.906;2023-02-12T00:48:43;100153.00;;;7.30
20058;BMP180;10189;49.546;7.906;2023-02-12T00:51:09;100156.00;;;7.30
20058;BMP180;10189;49.546;7.906;2023-02-12T00:53:36;100162.00;;;7.20
20058;BMP180;10189;49.546;7.906;2023-02-12T00:56:03;100168.00;;;7.20
20058;BMP180;10189;49.546;7.906;2023-02-12T00:58:29;100162.00;;;7.20
20058;BMP180;10189;49.546;7.906;2023-02-12T01:00:55;100154.00;;;7.20
20058;BMP180;10189;49.546;7.906;2023-02-12T01:03:23;100163.00;;;7.20
20058;BMP180;10189;49.546;7.906;2023-02-12T01:05:52;100158.00;;;7.30
20058;BMP180;10189;49.546;7.906;2023-02-12T01:08:19;100163.00;;;7.20
20058;BMP180;10189;49.546;7.906;2023-02-12T01:10:53;100171.00;;;7.20
20058;BMP180;10189;49.546;7.906;2023-02-12T01:13:20;100169.00;;;7.20
20058;BMP180;10189;49.546;7.906;2023-02-12T01:15:46;100161.00;;;7.20
20058;BMP180;10189;49.546;7.906;2023-02-12T01:18:12;100174.00;;;7.20
20058;BMP180;10189;49.546;7.906;2023-02-12T01:20:40;100165.00;;;7.20
20058;BMP180;10189;49.546;7.906;2023-02-12T01:23:06;100174.00;;;7.20
20058;BMP180;10189;49.546;7.906;2023-02-12T01:25:33;100173.00;;;7.30
20058;BMP180;10189;49.546;7.906;2023-02-12T01:27:59;100176.00;;;7.40
20058;BMP180;10189;49.546;7.906;2023-02-12T01:30:24;100163.00;;;7.40
20058;BMP180;10189;49.546;7.906;2023-02-12T01:32:50;100161.00;;;7.20
20058;BMP180;10189;49.546;7.906;2023-02-12T01:35:16;100173.00;;;7.30
20058;BMP180;10189;49.546;7.906;2023-02-12T01:37:42;100161.00;;;7.20
20058;BMP180;10189;49.546;7.906;2023-02-12T01:40:11;100179.00;;;7.20
20058;BMP180;10189;49.546;7.906;2023-02-12T01:42:39;100163.00;;;7.20
20058;BMP180;10189;49.546;7.906;2023-02-12T01:47:41;100156.00;;;7.20
20058;BMP180;10189;49.546;7.906;2023-02-12T01:50:14;100155.00;;;7.20
20058;BMP180;10189;49.546;7.906;2023-02-12T01:52:47;100152.00;;;7.30
20058;BMP180;10189;49.546;7.906;2023-02-12T01:55:15;100152.00;;;7.40
20058;BMP180;10189;49.546;7.906;2023-02-12T01:57:45;100161.00;;;7.40
20058;BMP180;10189;49.546;7.906;2023-02-12T02:02:57;100154.00;;;7.30
20058;BMP180;10189;49.546;7.906;2023-02-12T02:08:11;100148.00;;;7.40
20058;BMP180;10189;49.546;7.906;2023-02-12T02:10:37;100150.00;;;7.40
20058;BMP180;10189;49.546;7.906;2023-02-12T02:13:04;100148.00;;;7.30
20058;BMP180;10189;49.546;7.906;2023-02-12T02:15:56;100151.00;;;7.30
20058;BMP180;10189;49.546;7.906;2023-02-12T02:18:49;100153.00;;;7.20
20058;BMP180;10189;49.546;7.906;2023-02-12T02:24:19;100147.00;;;7.30
20058;BMP180;10189;49.546;7.906;2023-02-12T02:27:18;100145.00;;;7.20
20058;BMP180;10189;49.546;7.906;2023-02-12T02:33:10;100150.00;;;7.30
20058;BMP180;10189;49.546;7.906;2023-02-12T02:35:45;100144.00;;;7.30
20058;BMP180;10189;49.546;7.906;2023-02-12T02:44:27;100144.00;;;7.30
20058;BMP180;10189;49.546;7.906;2023-02-12T02:46:59;100139.00;;;7.40
20058;BMP180;10189;49.546;7.906;2023-02-12T02:49:41;100149.00;;;7.40
20058;BMP180;10189;49.546;7.906;2023-02-12T02:52:16;100142.00;;;7.40
20058;BMP180;10189;49.546;7.906;2023-02-12T02:54:54;100137.00;;;7.40
20058;BMP180;10189;49.546;7.906;2023-02-12T02:57:38;100144.00;;;7.30
20058;BMP180;10189;49.546;7.906;2023-02-12T03:00:19;100152.00;;;7.40
20058;BMP180;10189;49.546;7.906;2023-02-12T03:02:55;100138.00;;;7.40
20058;BMP180;10189;49.546;7.906;2023-02-12T03:05:31;100143.00;;;7.30
20058;BMP180;10189;49.546;7.906;2023-02-12T03:10:50;100135.00;;;7.30
20058;BMP180;10189;49.546;7.906;2023-02-12T03:13:27;100134.00;;;7.30
20058;BMP180;10189;49.546;7.906;2023-02-12T03:16:08;100143.00;;;7.30
20058;BMP180;10189;49.546;7.906;2023-02-12T03:18:45;100135.00;;;7.20
20058;BMP180;10189;49.546;7.906;2023-02-12T03:21:20;100141.00;;;7.20
20058;BMP180;10189;49.546;7.906;2023-02-12T03:23:57;100138.00;;;7.20
20058;BMP180;10189;49.546;7.906;2023-02-12T03:26:38;100146.00;;;7.20
20058;BMP180;10189;49.546;7.906;2023-02-12T03:29:05;100140.00;;;7.20
20058;BMP180;10189;49.546;7.906;2023-02-12T03:35:15;100139.00;;;7.30
20058;BMP180;10189;49.546;7.906;2023-02-12T03:38:08;100136.00;;;7.40
20058;BMP180;10189;49.546;7.906;2023-02-12T03:40:42;100132.00;;;7.30
20058;BMP180;10189;49.546;7.906;2023-02-12T03:43:42;100145.00;;;7.20
20058;BMP180;10189;49.546;7.906;2023-02-12T03:46:27;100150.00;;;7.10
20058;BMP180;10189;49.546;7.906;2023-02-12T03:51:44;100144.00;;;7.40
20058;BMP180;10189;49.546;7.906;2023-02-12T03:54:15;100140.00;;;7.40
20058;BMP180;10189;49.546;7.906;2023-02-12T03:56:51;100138.00;;;7.30
20058;BMP180;10189;49.546;7.906;2023-02-12T03:59:20;100141.00;;;7.30
20058;BMP180;10189;49.546;7.906;2023-02-12T04:01:48;100139.00;;;7.30
20058;BMP180;10189;49.546;7.906;2023-02-12T04:04:16;100146.00;;;7.40
20058;BMP180;10189;49.546;7.906;2023-02-12T04:06:45;100139.00;;;7.30
20058;BMP180;10189;49.546;7.906;2023-02-12T04:09:12;100141.00;;;7.30
20058;BMP180;10189;49.546;7.906;2023-02-12T04:20:45;100151.00;;;7.40
20058;BMP180;10189;49.546;7.906;2023-02-12T04:26:29;100156.00;;;7.30
20058;BMP180;10189;49.546;7.906;2023-02-12T04:29:32;100160.00;;;7.20
20058;BMP180;10189;49.546;7.906;2023-02-12T04:32:17;100167.00;;;7.10
20058;BMP180;10189;49.546;7.906;2023-02-12T04:34:57;100161.00;;;7.10
20058;BMP180;10189;49.546;7.906;2023-02-12T04:37:34;100160.00;;;7.00
20058;BMP180;10189;49.546;7.906;2023-02-12T04:40:06;100165.00;;;6.90
20058;BMP180;10189;49.546;7.906;2023-02-12T04:42:47;100158.00;;;7.10
20058;BMP180;10189;49.546;7.906;2023-02-12T04:45:23;100155.00;;;7.00
20058;BMP180;10189;49.546;7.906;2023-02-12T04:47:49;100164.00;;;7.00
20058;BMP180;10189;49.546;7.906;2023-02-12T04:50:15;100163.00;;;6.90
20058;BMP180;10189;49.546;7.906;2023-02-12T04:52:41;100162.00;;;6.90
20058;BMP180;10189;49.546;7.906;2023-02-12T04:55:07;100158.00;;;7.00
20058;BMP180;10189;49.546;7.906;2023-02-12T04:57:33;100168.00;;;7.00
20058;BMP180;10189;49.546;7.906;2023-02-12T04:59:59;100161.00;;;6.90
20058;BMP180;10189;49.546;7.906;2023-02-12T05:02:24;100150.00;;;7.00
20058;BMP180;10189;49.546;7.906;2023-02-12T05:04:50;100154.00;;;6.90
20058;BMP180;10189;49.546;7.906;2023-02-12T05:07:16;100154.00;;;6.90
20058;BMP180;10189;49.546;7.906;2023-02-12T05:09:42;100162.00;;;6.80
20058;BMP180;10189;49.546;7.906;2023-02-12T05:12:08;100160.00;;;6.90
20058;BMP180;10189;49.546;7.906;2023-02-12T05:14:34;100160.00;;;6.90
20058;BMP180;10189;49.546;7.906;2023-02-12T05:17:00;100157.00;;;6.90
20058;BMP180;10189;49.546;7.906;2023-02-12T05:19:25;100151.00;;;7.00
20058;BMP180;10189;49.546;7.906;2023-02-12T05:21:51;100162.00;;;7.00
20058;BMP180;10189;49.546;7.906;2023-02-12T05:24:17;100158.00;;;7.00
20058;BMP180;10189;49.546;7.906;2023-02-12T05:26:43;100153.00;;;7.00
20058;BMP180;10189;49.546;7.906;2023-02-12T05:29:09;100152.00;;;7.00
20058;BMP180;10189;49.546;7.906;2023-02-12T05:31:35;100147.00;;;7.00
20058;BMP180;10189;49.546;7.906;2023-02-12T05:34:01;100150.00;;;6.90
20058;BMP180;10189;49.546;7.906;2023-02-12T05:36:27;100150.00;;;6.90
20058;BMP180;10189;49.546;7.906;2023-02-12T05:38:57;100149.00;;;6.90
20058;BMP180;10189;49.546;7.906;2023-02-12T05:41:25;100157.00;;;6.90
20058;BMP180;10189;49.546;7.906;2023-02-12T05:43:52;100147.00;;;7.00
20058;BMP180;10189;49.546;7.906;2023-02-12T05:46:20;100157.00;;;7.00
20058;BMP180;10189;49.546;7.906;2023-02-12T05:48:46;100148.00;;;7.00
20058;BMP180;10189;49.546;7.906;2023-02-12T05:51:20;100155.00;;;7.10
20058;BMP180;10189;49.546;7.906;2023-02-12T05:53:50;100156.00;;;7.20
20058;BMP180;10189;49.546;7.906;2023-02-12T05:56:21;100151.00;;;7.20
20058;BMP180;10189;49.546;7.906;2023-02-12T05:58:54;100150.00;;;7.40
20058;BMP180;10189;49.546;7.906;2023-02-12T06:01:41;100149.00;;;7.40
20058;BMP180;10189;49.546;7.906;2023-02-12T06:04:14;100147.00;;;7.40
20058;BMP180;10189;49.546;7.906;2023-02-12T06:06:41;100141.00;;;7.40
20058;BMP180;10189;49.546;7.906;2023-02-12T06:09:09;100149.00;;;7.50
20058;BMP180;10189;49.546;7.906;2023-02-12T06:11:35;100143.00;;;7.40
20058;BMP180;10189;49.546;7.906;2023-02-12T06:14:07;100142.00;;;7.40
20058;BMP180;10189;49.546;7.906;2023-02-12T06:16:34;100147.00;;;7.30
20058;BMP180;10189;49.546;7.906;2023-02-12T06:19:03;100166.00;;;7.20
20058;BMP180;10189;49.546;7.906;2023-02-12T06:21:31;100158.00;;;7.20
20058;BMP180;10189;49.546;7.906;2023-02-12T06:23:57;100174.00;;;7.10
20058;BMP180;10189;49.546;7.906;2023-02-12T06:26:24;100178.00;;;7.10
20058;BMP180;10189;49.546;7.906;2023-02-12T06:28:50;100172.00;;;7.00
20058;BMP180;10189;49.546;7.906;2023-02-12T06:31:31;100177.00;;;7.10
20058;BMP180;10189;49.546;7.906;2023-02-12T06:34:02;100181.00;;;7.10
20058;BMP180;10189;49.546;7.906;2023-02-12T06:36:28;100178.00;;;7.10
20058;BMP180;10189;49.546;7.906;2023-02-12T06:38:54;100174.00;;;7.10
20058;BMP180;10189;49.546;7.906;2023-02-12T06:41:21;100179.00;;;7.10
20058;BMP180;10189;49.546;7.906;2023-02-12T06:43:48;100175.00;;;7.10
20058;BMP180;10189;49.546;7.906;2023-02-12T06:46:14;100166.00;;;7.20
20058;BMP180;10189;49.546;7.906;2023-02-12T06:48:40;100179.00;;;7.20
20058;BMP180;10189;49.546;7.906;2023-02-12T06:51:16;100166.00;;;7.20
20058;BMP180;10189;49.546;7.906;2023-02-12T06:53:43;100170.00;;;7.30
20058;BMP180;10189;49.546;7.906;2023-02-12T06:56:11;100178.00;;;7.30
20058;BMP180;10189;49.546;7.906;2023-02-12T06:58:43;100190.00;;;7.20
20058;BMP180;10189;49.546;7.906;2023-02-12T07:01:14;100185.00;;;7.20
20058;BMP180;10189;49.546;7.906;2023-02-12T07:03:47;100190.00;;;7.30
20058;BMP180;10189;49.546;7.906;2023-02-12T07:06:13;100186.00;;;7.40
20058;BMP180;10189;49.546;7.906;2023-02-12T07:08:39;100197.00;;;7.40
20058;BMP180;10189;49.546;7.906;2023-02-12T07:11:07;100195.00;;;7.50
20058;BMP180;10189;49.546;7.906;2023-02-12T07:13:33;100191.00;;;7.40
20058;BMP180;10189;49.546;7.906;2023-02-12T07:16:14;100197.00;;;7.50
20058;BMP180;10189;49.546;7.906;2023-02-12T07:18:43;100194.00;;;7.40
20058;BMP180;10189;49.546;7.906;2023-02-12T07:21:11;100211.00;;;7.50
20058;BMP180;10189;49.546;7.906;2023-02-12T07:23:38;100207.00;;;7.60
20058;BMP180;10189;49.546;7.906;2023-02-12T07:26:09;100208.00;;;7.60
20058;BMP180;10189;49.546;7.906;2023-02-12T07:28:36;100206.00;;;7.70
20058;BMP180;10189;49.546;7.906;2023-02-12T07:31:19;100208.00;;;7.70
20058;BMP180;10189;49.546;7.906;2023-02-12T07:33:46;100208.00;;;7.80
20058;BMP180;10189;49.546;7.906;2023-02-12T07:36:16;100204.00;;;7.80
20058;BMP180;10189;49.546;7.906;2023-02-12T07:38:43;100205.00;;;7.90
20058;BMP180;10189;49.546;7.906;2023-02-12T07:41:15;100184.00;;;8.00
20058;BMP180;10189;49.546;7.906;2023-02-12T07:43:44;100193.00;;;8.00
20058;BMP180;10189;49.546;7.906;2023-02-12T07:46:13;100192.00;;;8.00
20058;BMP180;10189;49.546;7.906;2023-02-12T07:48:41;100194.00;;;8.10
20058;BMP180;10189;49.546;7.906;2023-02-12T07:51:10;100194.00;;;8.20
20058;BMP180;10189;49.546;7.906;2023-02-12T07:53:37;100201.00;;;8.30
20058;BMP180;10189;49.546;7.906;2023-02-12T07:56:19;100197.00;;;8.40
20058;BMP180;10189;49.546;7.906;2023-02-12T07:58:50;100201.00;;;8.50
20058;BMP180;10189;49.546;7.906;2023-02-12T08:03:48;100197.00;;;8.70
20058;BMP180;10189;49.546;7.906;2023-02-12T08:08:45;100192.00;;;8.90
20058;BMP180;10189;49.546;7.906;2023-02-12T08:11:13;100195.00;;;8.80
20058;BMP180;10189;49.546;7.906;2023-02-12T08:13:40;100195.00;;;8.80
20058;BMP180;10189;49.546;7.906;2023-02-12T08:16:10;100204.00;;;8.80
20058;BMP180;10189;49.546;7.906;2023-02-12T08:18:36;100201.00;;;8.80
20058;BMP180;10189;49.546;7.906;2023-02-12T08:21:05;100201.00;;;8.90
20058;BMP180;10189;49.546;7.906;2023-02-12T08:23:32;100204.00;;;8.90
20058;BMP180;10189;49.546;7.906;2023-02-12T08:26:14;100209.00;;;8.80
20058;BMP180;10189;49.546;7.906;2023-02-12T08:28:44;100204.00;;;8.90
20058;BMP180;10189;49.546;7.906;2023-02-12T08:31:15;100208.00;;;8.90
20058;BMP180;10189;49.546;7.906;2023-02-12T08:33:44;100210.00;;;8.70
20058;BMP180;10189;49.546;7.906;2023-02-12T08:36:14;100210.00;;;8.80
20058;BMP180;10189;49.546;7.906;2023-02-12T08:38:42;100205.00;;;8.80
20058;BMP180;10189;49.546;7.906;2023-02-12T08:41:15;100207.00;;;8.90
20058;BMP180;10189;49.546;7.906;2023-02-12T08:43:42;100219.00;;;9.00
20058;BMP180;10189;49.546;7.906;2023-02-12T08:46:14;100228.00;;;8.90
20058;BMP180;10189;49.546;7.906;2023-02-12T08:48:42;100215.00;;;9.00
20058;BMP180;10189;49.546;7.906;2023-02-12T08:51:18;100216.00;;;9.10
20058;BMP180;10189;49.546;7.906;2023-02-12T08:53:47;100220.00;;;9.20
20058;BMP180;10189;49.546;7.906;2023-02-12T08:56:16;100211.00;;;9.10
20058;BMP180;10189;49.546;7.906;2023-02-12T08:58:43;100212.00;;;9.00
20058;BMP180;10189;49.546;7.906;2023-02-12T09:01:16;100217.00;;;9.10
20058;BMP180;10189;49.546;7.906;2023-02-12T09:03:43;100225.00;;;9.20
20058;BMP180;10189;49.546;7.906;2023-02-12T09:06:10;100220.00;;;9.20
20058;BMP180;10189;49.546;7.906;2023-02-12T09:08:38;100210.00;;;9.20
20058;BMP180;10189;49.546;7.906;2023-02-12T09:11:16;100204.00;;;9.20
20058;BMP180;10189;49.546;7.906;2023-02-12T09:13:46;100218.00;;;9.10
20058;BMP180;10189;49.546;7.906;2023-02-12T09:16:12;100219.00;;;9.20
20058;BMP180;10189;49.546;7.906;2023-02-12T09:18:39;100220.00;;;9.20
20058;BMP180;10189;49.546;7.906;2023-02-12T09:21:10;100224.00;;;9.10
20058;BMP180;10189;49.546;7.906;2023-02-12T09:23:37;100224.00;;;9.20
20058;BMP180;10189;49.546;7.906;2023-02-12T09:26:06;100221.00;;;9.20
20058;BMP180;10189;49.546;7.906;2023-02-12T09:28:33;100209.00;;;9.20
20058;BMP180;10189;49.546;7.906;2023-02-12T09:31:09;100221.00;;;9.00
20058;BMP180;10189;49.546;7.906;2023-02-12T09:33:36;100218.00;;;9.00
20058;BMP180;10189;49.546;7.906;2023-02-12T09:36:14;100225.00;;;9.10
20058;BMP180;10189;49.546;7.906;2023-02-12T09:38:40;100209.00;;;9.30
20058;BMP180;10189;49.546;7.906;2023-02-12T09:52:27;100211.00;;;9.90
20058;BMP180;10189;49.546;7.906;2023-02-12T09:54:58;100215.00;;;10.00
20058;BMP180;10189;49.546;7.906;2023-02-12T09:57:35;100219.00;;;9.70
20058;BMP180;10189;49.546;7.906;2023-02-12T10:00:16;100226.00;;;9.50
20058;BMP180;10189;49.546;7.906;2023-02-12T10:02:42;100226.00;;;9.20
20058;BMP180;10189;49.546;7.906;2023-02-12T10:05:57;100225.00;;;9.20
20058;BMP180;10189;49.546;7.906;2023-02-12T10:12:03;100229.00;;;9.30
20058;BMP180;10189;49.546;7.906;2023-02-12T10:14:43;100228.00;;;9.40
20058;BMP180;10189;49.546;7.906;2023-02-12T10:20:37;100228.00;;;9.60
20058;BMP180;10189;49.546;7.906;2023-02-12T10:26:29;100214.00;;;9.90
20058;BMP180;10189;49.546;7.906;2023-02-12T10:29:12;100209.00;;;10.10
20058;BMP180;10189;49.546;7.906;2023-02-12T10:31:45;100214.00;;;10.20
20058;BMP180;10189;49.546;7.906;2023-02-12T10:34:25;100212.00;;;10.20
20058;BMP180;10189;49.546;7.906;2023-02-12T10:37:00;100201.00;;;10.10
20058;BMP180;10189;49.546;7.906;2023-02-12T10:39:55;100210.00;;;10.10
20058;BMP180;10189;49.546;7.906;2023-02-12T10:42:39;100205.00;;;9.90
20058;BMP180;10189;49.546;7.906;2023-02-12T10:45:12;100211.00;;;9.90
20058;BMP180;10189;49.546;7.906;2023-02-12T10:47:38;100201.00;;;9.90
20058;BMP180;10189;49.546;7.906;2023-02-12T10:50:32;100214.00;;;9.90
20058;BMP180;10189;49.546;7.906;2023-02-12T10:53:01;100202.00;;;9.80
20058;BMP180;10189;49.546;7.906;2023-02-12T10:55:32;100196.00;;;9.80
20058;BMP180;10189;49.546;7.906;2023-02-12T10:58:01;100194.00;;;9.90
20058;BMP180;10189;49.546;7.906;2023-02-12T11:00:33;100198.00;;;10.10
20058;BMP180;10189;49.546;7.906;2023-02-12T11:03:26;100193.00;;;10.10
20058;BMP180;10189;49.546;7.906;2023-02-12T11:05:52;100192.00;;;10.20
20058;BMP180;10189;49.546;7.906;2023-02-12T11:08:36;100186.00;;;10.20
20058;BMP180;10189;49.546;7.906;2023-02-12T11:11:27;100193.00;;;10.10
20058;BMP180;10189;49.546;7.906;2023-02-12T11:14:05;100170.00;;;10.40
20058;BMP180;10189;49.546;7.906;2023-02-12T11:16:35;100176.00;;;10.30
20058;BMP180;10189;49.546;7.906;2023-02-12T11:19:10;100168.00;;;10.40
20058;BMP180;10189;49.546;7.906;2023-02-12T11:21:43;100168.00;;;10.60
20058;BMP180;10189;49.546;7.906;2023-02-12T11:24:30;100163.00;;;10.80
20058;BMP180;10189;49.546;7.906;2023-02-12T11:29:44;100162.00;;;10.30
20058;BMP180;10189;49.546;7.906;2023-02-12T11:32:18;100154.00;;;10.50
20058;BMP180;10189;49.546;7.906;2023-02-12T11:35:21;100152.00;;;10.70
20058;BMP180;10189;49.546;7.906;2023-02-12T11:37:59;100143.00;;;10.70
20058;BMP180;10189;49.546;7.906;2023-02-12T11:40:31;100151.00;;;10.80
20058;BMP180;10189;49.546;7.906;2023-02-12T11:43:03;100144.00;;;10.90
20058;BMP180;10189;49.546;7.906;2023-02-12T11:45:44;100151.00;;;10.80
20058;BMP180;10189;49.546;7.906;2023-02-12T11:48:29;100162.00;;;10.80
20058;BMP180;10189;49.546;7.906;2023-02-12T11:51:00;100155.00;;;10.80
20058;BMP180;10189;49.546;7.906;2023-02-12T11:53:35;100149.00;;;10.50
20058;BMP180;10189;49.546;7.906;2023-02-12T11:56:05;100150.00;;;10.80
20058;BMP180;10189;49.546;7.906;2023-02-12T11:58:32;100137.00;;;10.80
20058;BMP180;10189;49.546;7.906;2023-02-12T12:01:11;100136.00;;;10.90
20058;BMP180;10189;49.546;7.906;2023-02-12T12:04:03;100129.00;;;10.90
20058;BMP180;10189;49.546;7.906;2023-02-12T12:06:40;100142.00;;;10.90
20058;BMP180;10189;49.546;7.906;2023-02-12T12:09:48;100147.00;;;10.50
20058;BMP180;10189;49.546;7.906;2023-02-12T12:12:36;100143.00;;;10.50
20058;BMP180;10189;49.546;7.906;2023-02-12T12:15:26;100143.00;;;10.50
20058;BMP180;10189;49.546;7.906;2023-02-12T12:18:45;100133.00;;;10.80
20058;BMP180;10189;49.546;7.906;2023-02-12T12:21:41;100119.00;;;10.80
20058;BMP180;10189;49.546;7.906;2023-02-12T12:24:19;100130.00;;;10.90
20058;BMP180;10189;49.546;7.906;2023-02-12T12:27:19;100131.00;;;10.60
20058;BMP180;10189;49.546;7.906;2023-02-12T12:30:19;100132.00;;;10.60
20058;BMP180;10189;49.546;7.906;2023-02-12T12:32:50;100118.00;;;10.60
20058;BMP180;10189;49.546;7.906;2023-02-12T12:35:24;100108.00;;;10.70
20058;BMP180;10189;49.546;7.906;2023-02-12T12:38:11;100117.00;;;10.60
20058;BMP180;10189;49.546;7.906;2023-02-12T12:41:05;100129.00;;;10.50
20058;BMP180;10189;49.546;7.906;2023-02-12T12:47:13;100131.00;;;10.60
20058;BMP180;10189;49.546;7.906;2023-02-12T12:52:15;100123.00;;;10.70
20058;BMP180;10189;49.546;7.906;2023-02-12T12:55:21;100111.00;;;10.70
20058;BMP180;10189;49.546;7.906;2023-02-12T12:58:05;100107.00;;;10.70
20058;BMP180;10189;49.546;7.906;2023-02-12T13:01:09;100112.00;;;10.90
20058;BMP180;10189;49.546;7.906;2023-02-12T13:10:31;100109.00;;;11.00
20058;BMP180;10189;49.546;7.906;2023-02-12T13:13:33;100104.00;;;11.00
20058;BMP180;10189;49.546;7.906;2023-02-12T13:21:57;100095.00;;;11.00
20058;BMP180;10189;49.546;7.906;2023-02-12T13:24:46;100092.00;;;10.90
20058;BMP180;10189;49.546;7.906;2023-02-12T13:27:19;100090.00;;;10.80
20058;BMP180;10189;49.546;7.906;2023-02-12T13:29:51;100094.00;;;10.90
20058;BMP180;10189;49.546;7.906;2023-02-12T13:32:31;100090.00;;;10.80
20058;BMP180;10189;49.546;7.906;2023-02-12T13:34:59;100089.00;;;10.90
20058;BMP180;10189;49.546;7.906;2023-02-12T13:37:46;100089.00;;;10.80
20058;BMP180;10189;49.546;7.906;2023-02-12T13:40:24;100082.00;;;10.70
20058;BMP180;10189;49.546;7.906;2023-02-12T13:46:22;100077.00;;;10.70
20058;BMP180;10189;49.546;7.906;2023-02-12T13:49:23;100081.00;;;10.80
20058;BMP180;10189;49.546;7.906;2023-02-12T13:55:04;100074.00;;;10.90
20058;BMP180;10189;49.546;7.906;2023-02-12T13:57:35;100078.00;;;10.90
20058;BMP180;10189;49.546;7.906;2023-02-12T14:00:05;100070.00;;;11.10
20058;BMP180;10189;49.546;7.906;2023-02-12T14:02:52;100068.00;;;10.80
20058;BMP180;10189;49.546;7.906;2023-02-12T14:05:26;100077.00;;;10.70
20058;BMP180;10189;49.546;7.906;2023-02-12T14:07:58;100069.00;;;10.90
20058;BMP180;10189;49.546;7.906;2023-02-12T14:13:15;100065.00;;;10.70
20058;BMP180;10189;49.546;7.906;2023-02-12T14:15:47;100070.00;;;10.80
20058;BMP180;10189;49.546;7.906;2023-02-12T14:18:34;100070.00;;;10.80
20058;BMP180;10189;49.546;7.906;2023-02-12T14:23:43;100050.00;;;11.10
20058;BMP180;10189;49.546;7.906;2023-02-12T14:26:18;100055.00;;;11.10
20058;BMP180;10189;49.546;7.906;2023-02-12T14:28:58;100059.00;;;11.20
20058;BMP180;10189;49.546;7.906;2023-02-12T14:31:35;100063.00;;;11.10
20058;BMP180;10189;49.546;7.906;2023-02-12T14:39:00;100048.00;;;11.10
20058;BMP180;10189;49.546;7.906;2023-02-12T14:41:38;100048.00;;;10.80
20058;BMP180;10189;49.546;7.906;2023-02-12T14:46:47;100046.00;;;10.60
20058;BMP180;10189;49.546;7.906;2023-02-12T14:52:05;100052.00;;;10.80
20058;BMP180;10189;49.546;7.906;2023-02-12T14:57:41;100045.00;;;11.10
20058;BMP180;10189;49.546;7.906;2023-02-12T15:02:49;100034.00;;;11.00
20058;BMP180;10189;49.546;7.906;2023-02-12T15:05:29;100036.00;;;11.00
20058;BMP180;10189;49.546;7.906;2023-02-12T15:17:25;100037.00;;;11.00
20058;BMP180;10189;49.546;7.906;2023-02-12T15:22:33;100047.00;;;10.90
20058;BMP180;10189;49.546;7.906;2023-02-12T15:25:28;100048.00;;;10.80
20058;BMP180;10189;49.546;7.906;2023-02-12T15:28:22;100052.00;;;10.50
20058;BMP180;10189;49.546;7.906;2023-02-12T15:30:51;100047.00;;;10.50
20058;BMP180;10189;49.546;7.906;2023-02-12T15:33:26;100055.00;;;10.40
20058;BMP180;10189;49.546;7.906;2023-02-12T15:35:54;100049.00;;;10.40
20058;BMP180;10189;49.546;7.906;2023-02-12T15:38:29;100048.00;;;10.20
20058;BMP180;10189;49.546;7.906;2023-02-12T15:40:59;100048.00;;;10.30
20058;BMP180;10189;49.546;7.906;2023-02-12T15:43:32;100053.00;;;10.30
20058;BMP180;10189;49.546;7.906;2023-02-12T15:46:05;100047.00;;;10.30
20058;BMP180;10189;49.546;7.906;2023-02-12T15:48:35;100057.00;;;10.30
20058;BMP180;10189;49.546;7.906;2023-02-12T15:51:37;100038.00;;;10.20
20058;BMP180;10189;49.546;7.906;2023-02-12T15:54:06;100047.00;;;10.20
20058;BMP180;10189;49.546;7.906;2023-02-12T15:56:33;100041.00;;;10.40
20058;BMP180;10189;49.546;7.906;2023-02-12T15:59:02;100042.00;;;10.30
20058;BMP180;10189;49.546;7.906;2023-02-12T16:01:34;100041.00;;;10.30
20058;BMP180;10189;49.546;7.906;2023-02-12T16:04:05;100038.00;;;10.20
20058;BMP180;10189;49.546;7.906;2023-02-12T16:06:34;100047.00;;;10.20
20058;BMP180;10189;49.546;7.906;2023-02-12T16:09:08;100035.00;;;10.10
20058;BMP180;10189;49.546;7.906;2023-02-12T16:11:38;100044.00;;;10.10
20058;BMP180;10189;49.546;7.906;2023-02-12T16:14:26;100044.00;;;10.10
20058;BMP180;10189;49.546;7.906;2023-02-12T16:16:57;100032.00;;;10.10
20058;BMP180;10189;49.546;7.906;2023-02-12T16:19:31;100034.00;;;10.00
20058;BMP180;10189;49.546;7.906;2023-02-12T16:22:15;100048.00;;;9.80
20058;BMP180;10189;49.546;7.906;2023-02-12T16:24:51;100051.00;;;9.70
20058;BMP180;10189;49.546;7.906;2023-02-12T16:27:30;100048.00;;;9.60
20058;BMP180;10189;49.546;7.906;2023-02-12T16:30:00;100050.00;;;9.50
20058;BMP180;10189;49.546;7.906;2023-02-12T16:32:42;100048.00;;;9.40
20058;BMP180;10189;49.546;7.906;2023-02-12T16:40:16;100048.00;;;9.40
20058;BMP180;10189;49.546;7.906;2023-02-12T16:47:56;100057.00;;;9.40
20058;BMP180;10189;49.546;7.906;2023-02-12T16:50:26;100058.00;;;9.30
20058;BMP180;10189;49.546;7.906;2023-02-12T16:55:51;100050.00;;;9.40
20058;BMP180;10189;49.546;7.906;2023-02-12T16:58:17;100057.00;;;9.50
20058;BMP180;10189;49.546;7.906;2023-02-12T17:00:43;100056.00;;;9.50
20058;BMP180;10189;49.546;7.906;2023-02-12T17:03:13;100066.00;;;9.50